Time;durP1;ratioP1;P1;durP2;ratioP2;P2;SDS_P1;SDS_P2;PMS_P1;PMS_P2;Temp;Humidity;BMP_temperature;BMP_pressure;BME280_temperature;BME280_humidity;BME280_pressure;Samples;Min_cycle;Max_cycle;Signal;HPM_P1;HPM_P2
2022/06/20 03:03:29;;;;;;;2.03;1.50;;;17.90;99.90;;;;;;6071913;23;20502;-87
2022/06/20 03:06:00;;;;;;;2.13;1.37;;;17.90;99.90;;;;;;6096067;23;20194;-88
2022/06/20 03:08:32;;;;;;;1.60;1.50;;;17.80;99.90;;;;;;6095347;23;20171;-89
2022/06/20 03:11:04;;;;;;;2.03;1.47;;;17.70;99.90;;;;;;6095516;23;20171;-87
2022/06/20 03:13:36;;;;;;;1.63;1.40;;;17.70;99.90;;;;;;6095364;23;20610;-88
2022/06/20 03:16:09;;;;;;;1.37;1.27;;;17.60;99.90;;;;;;6095133;23;20282;-88
2022/06/20 03:18:44;;;;;;;1.80;1.30;;;17.40;99.90;;;;;;6098306;23;20625;-88
2022/06/20 03:21:17;;;;;;;2.53;1.30;;;17.40;99.90;;;;;;6094865;23;20183;-88
2022/06/20 03:23:47;;;;;;;2.43;1.63;;;17.40;99.90;;;;;;6098125;23;20566;-92
2022/06/20 03:26:23;;;;;;;1.40;1.30;;;17.30;99.90;;;;;;6099558;23;20262;-93
2022/06/20 03:28:57;;;;;;;1.30;1.17;;;17.20;99.90;;;;;;6097894;23;20178;-94
2022/06/20 03:31:28;;;;;;;2.90;1.40;;;17.20;99.90;;;;;;6197903;23;20180;-94
2022/06/20 03:34:03;;;;;;;1.67;1.43;;;17.10;99.90;;;;;;6099097;23;20198;-94
2022/06/20 03:36:36;;;;;;;1.73;1.47;;;17.10;99.90;;;;;;6100983;23;20683;-94
2022/06/20 03:39:08;;;;;;;1.83;1.33;;;17.10;99.90;;;;;;6102345;23;20183;-94
2022/06/20 03:41:40;;;;;;;1.50;1.40;;;17.00;99.90;;;;;;6100931;23;20245;-95
2022/06/20 03:44:17;;;;;;;1.47;1.20;;;16.90;99.90;;;;;;6056786;23;20246;-94
2022/06/20 03:46:55;;;;;;;1.53;1.10;;;16.80;99.90;;;;;;6104741;23;20190;-94
2022/06/20 03:49:34;;;;;;;1.60;1.50;;;16.80;99.90;;;;;;6104167;23;20175;-93
2022/06/20 03:52:11;;;;;;;1.53;1.30;;;16.80;99.90;;;;;;6101782;23;20179;-95
2022/06/20 03:54:54;;;;;;;1.77;1.33;;;16.80;99.90;;;;;;6086957;22;20167;-95
2022/06/20 03:57:29;;;;;;;1.40;1.30;;;16.70;99.90;;;;;;6112279;23;20195;-93
2022/06/20 04:00:08;;;;;;;5.13;1.50;;;16.70;99.90;;;;;;6109539;22;20183;-93
2022/06/20 04:02:43;;;;;;;2.37;1.37;;;16.60;99.90;;;;;;6108994;23;20225;-93
2022/06/20 04:05:24;;;;;;;1.43;1.10;;;16.60;99.90;;;;;;6102510;22;20179;-94
2022/06/20 04:08:00;;;;;;;1.30;1.20;;;16.60;99.90;;;;;;6103568;23;20171;-95
2022/06/20 04:13:35;;;;;;;1.83;1.40;;;16.60;99.90;;;;;;6101455;22;20175;-94
2022/06/20 04:16:11;;;;;;;1.93;1.30;;;16.50;99.90;;;;;;6098992;23;20199;-95
2022/06/20 04:18:52;;;;;;;2.23;1.50;;;16.50;99.90;;;;;;6101682;22;20534;-94
2022/06/20 04:21:29;;;;;;;1.53;1.40;;;16.40;99.90;;;;;;6099525;23;20502;-94
2022/06/20 04:24:07;;;;;;;4.20;1.40;;;16.40;99.90;;;;;;6098717;23;20555;-95
2022/06/20 04:26:44;;;;;;;1.93;1.20;;;16.40;99.90;;;;;;6100249;23;20678;-95
2022/06/20 04:29:21;;;;;;;1.30;1.20;;;16.30;99.90;;;;;;6112622;22;20217;-93
2022/06/20 04:31:55;;;;;;;2.30;1.40;;;16.30;99.90;;;;;;6111672;22;20210;-94
2022/06/20 04:34:35;;;;;;;2.10;1.33;;;16.20;99.90;;;;;;6107660;22;20205;-94
2022/06/20 04:37:31;;;;;;;1.53;1.43;;;16.20;99.90;;;;;;6112089;22;20195;-94
2022/06/20 04:40:09;;;;;;;3.10;1.37;;;16.30;99.90;;;;;;6115001;22;20188;-94
2022/06/20 04:42:48;;;;;;;1.50;1.37;;;16.30;99.90;;;;;;6114835;22;20163;-94
2022/06/20 04:45:29;;;;;;;2.40;1.73;;;16.30;99.90;;;;;;6114203;23;20179;-94
2022/06/20 04:48:09;;;;;;;2.47;1.47;;;16.30;99.90;;;;;;6112219;23;20178;-94
2022/06/20 04:50:46;;;;;;;2.33;1.60;;;16.30;99.90;;;;;;6110922;23;20190;-94
2022/06/20 04:53:52;;;;;;;1.90;1.80;;;16.30;99.90;;;;;;6114170;22;20167;-95
2022/06/20 04:56:57;;;;;;;2.13;1.80;;;16.20;99.90;;;;;;6102089;23;20207;-94
2022/06/20 04:59:32;;;;;;;1.70;1.60;;;16.10;99.90;;;;;;6096674;23;20194;-95
2022/06/20 05:02:11;;;;;;;3.17;2.00;;;16.00;99.90;;;;;;6098188;23;20209;-94
2022/06/20 05:04:46;;;;;;;3.30;2.27;;;15.90;99.90;;;;;;6105832;23;20194;-94
2022/06/20 05:07:23;;;;;;;2.37;1.80;;;15.90;99.90;;;;;;6099998;23;20175;-94
2022/06/20 05:10:01;;;;;;;2.90;1.93;;;15.80;99.90;;;;;;6096002;23;20314;-95
2022/06/20 05:12:42;;;;;;;4.10;1.90;;;15.80;99.90;;;;;;6072177;23;20183;-93
2022/06/20 05:15:19;;;;;;;3.10;1.70;;;15.80;99.90;;;;;;6072638;23;20182;-94
2022/06/20 05:17:53;;;;;;;4.30;2.10;;;15.70;99.90;;;;;;6100018;23;20189;-95
2022/06/20 05:20:31;;;;;;;2.57;1.93;;;15.70;99.90;;;;;;6108116;23;20209;-94
2022/06/20 05:23:07;;;;;;;2.33;2.00;;;15.60;99.90;;;;;;6100468;23;20205;-95
2022/06/20 05:25:42;;;;;;;2.63;1.97;;;15.70;99.90;;;;;;6096407;23;20167;-93
2022/06/20 05:28:20;;;;;;;3.17;1.97;;;15.60;99.90;;;;;;6096720;23;20706;-94
2022/06/20 05:30:51;;;;;;;4.37;2.00;;;15.60;99.90;;;;;;6096620;23;20567;-95
2022/06/20 05:33:26;;;;;;;1.67;1.57;;;15.60;99.90;;;;;;6100567;23;20251;-94
2022/06/20 05:36:00;;;;;;;3.23;2.03;;;15.50;99.90;;;;;;6072732;23;20190;-95
2022/06/20 05:38:36;;;;;;;3.13;1.50;;;15.40;99.90;;;;;;6097546;23;20202;-95
2022/06/20 05:41:08;;;;;;;2.63;1.50;;;15.30;99.90;;;;;;6095935;23;20252;-94
2022/06/20 05:43:43;;;;;;;1.87;1.57;;;15.20;99.90;;;;;;6097316;23;20179;-94
2022/06/20 05:46:21;;;;;;;2.80;1.57;;;15.10;99.90;;;;;;6097293;23;20943;-93
2022/06/20 05:48:55;;;;;;;4.33;1.80;;;15.20;99.90;;;;;;6096706;23;20266;-93
2022/06/20 05:51:28;;;;;;;2.30;1.80;;;15.10;99.90;;;;;;6102600;23;20179;-93
2022/06/20 05:54:05;;;;;;;3.93;1.50;;;15.00;99.90;;;;;;6100577;23;20202;-93
2022/06/20 05:56:42;;;;;;;2.73;1.70;;;15.10;99.90;;;;;;6077519;23;20210;-95
2022/06/20 05:59:35;;;;;;;2.50;1.57;;;15.10;99.90;;;;;;6100396;23;20201;-94
2022/06/20 06:02:22;;;;;;;2.83;1.50;;;15.10;99.90;;;;;;6095198;23;20190;-92
2022/06/20 06:05:00;;;;;;;3.13;1.70;;;15.10;99.90;;;;;;6099033;23;20542;-92
2022/06/20 06:07:36;;;;;;;3.27;1.30;;;15.00;99.90;;;;;;6099745;23;20167;-91
2022/06/20 06:10:24;;;;;;;2.70;1.53;;;15.00;99.90;;;;;;6098940;23;20189;-92
2022/06/20 06:13:04;;;;;;;2.77;1.70;;;14.90;99.90;;;;;;6096697;23;20183;-92
2022/06/20 06:16:46;;;;;;;4.23;1.53;;;14.90;99.90;;;;;;6098447;23;20233;-93
2022/06/20 06:18:39;;;;;;;3.20;1.80;;;14.80;99.90;;;;;;6076971;23;20504;-94
2022/06/20 06:21:11;;;;;;;2.67;1.63;;;14.80;99.90;;;;;;6095820;23;20246;-93
2022/06/20 06:23:45;;;;;;;5.00;1.40;;;14.80;99.90;;;;;;6095460;23;20183;-93
2022/06/20 06:26:19;;;;;;;2.33;1.40;;;14.80;99.90;;;;;;6101195;23;20572;-93
2022/06/20 06:28:52;;;;;;;3.40;1.83;;;14.80;99.90;;;;;;6097028;23;20226;-92
2022/06/20 06:31:29;;;;;;;5.40;1.80;;;14.80;99.90;;;;;;6097774;23;20183;-92
2022/06/20 06:34:05;;;;;;;3.90;1.83;;;14.70;99.90;;;;;;6100865;22;20258;-93
2022/06/20 06:36:43;;;;;;;3.23;1.53;;;14.70;99.90;;;;;;6097312;23;20207;-93
2022/06/20 06:39:22;;;;;;;2.73;1.30;;;14.70;99.90;;;;;;6072428;23;20186;-94
2022/06/20 06:41:57;;;;;;;2.60;1.10;;;14.60;99.90;;;;;;6097720;23;20193;-94
2022/06/20 06:44:33;;;;;;;2.60;1.30;;;14.50;99.90;;;;;;6104206;23;20167;-92
2022/06/20 06:47:08;;;;;;;3.13;1.50;;;14.40;99.90;;;;;;6115677;22;20189;-94
2022/06/20 06:49:46;;;;;;;2.20;1.23;;;14.40;99.90;;;;;;6091377;23;20194;-92
2022/06/20 06:52:23;;;;;;;2.87;1.77;;;14.30;99.90;;;;;;6113734;22;20217;-93
2022/06/20 06:54:59;;;;;;;2.63;1.60;;;14.30;99.90;;;;;;6106006;23;20209;-93
2022/06/20 06:57:40;;;;;;;2.77;1.50;;;14.20;99.90;;;;;;6104952;23;20229;-94
2022/06/20 07:00:31;;;;;;;5.40;2.33;;;14.30;99.90;;;;;;6106632;23;20167;-94
2022/06/20 07:06:15;;;;;;;2.70;1.70;;;14.20;99.90;;;;;;6108785;23;20175;-94
2022/06/20 07:09:13;;;;;;;2.73;1.50;;;14.20;99.90;;;;;;6097824;23;20187;-94
2022/06/20 07:11:49;;;;;;;3.13;1.57;;;14.20;99.90;;;;;;6101587;22;20613;-93
2022/06/20 07:14:24;;;;;;;3.10;1.60;;;14.20;99.90;;;;;;6105570;23;20252;-94
2022/06/20 07:17:07;;;;;;;5.37;1.57;;;14.10;99.90;;;;;;6105839;23;20206;-94
2022/06/20 07:19:44;;;;;;;3.67;1.43;;;14.10;99.90;;;;;;6102681;23;20197;-94
2022/06/20 07:22:18;;;;;;;6.17;2.10;;;14.10;99.90;;;;;;6076315;23;20183;-95
2022/06/20 07:24:49;;;;;;;3.47;1.67;;;14.10;99.90;;;;;;6099093;23;20261;-94
2022/06/20 07:27:26;;;;;;;6.40;1.77;;;14.10;99.90;;;;;;6102320;23;20167;-94
2022/06/20 07:30:04;;;;;;;4.73;1.80;;;14.00;99.90;;;;;;6105705;23;20193;-94
2022/06/20 07:32:40;;;;;;;3.40;1.40;;;14.00;99.90;;;;;;6117469;22;20175;-94
2022/06/20 07:35:17;;;;;;;5.63;1.93;;;14.00;99.90;;;;;;6116312;22;20198;-93
2022/06/20 07:37:53;;;;;;;5.03;1.90;;;14.00;99.90;;;;;;6118008;22;20224;-94
2022/06/20 07:40:27;;;;;;;3.03;1.63;;;13.90;99.90;;;;;;6117075;22;20252;-94
2022/06/20 07:43:04;;;;;;;3.57;1.70;;;13.90;99.90;;;;;;6093859;23;20194;-93
2022/06/20 07:45:41;;;;;;;6.97;2.27;;;13.90;99.90;;;;;;6115579;23;20167;-93
2022/06/20 07:48:16;;;;;;;5.67;1.83;;;13.70;99.90;;;;;;6092926;23;20229;-91
2022/06/20 07:50:55;;;;;;;6.07;2.17;;;13.70;99.90;;;;;;6106089;23;20185;-91
2022/06/20 07:53:33;;;;;;;5.23;1.77;;;13.80;99.90;;;;;;6103332;23;20202;-92
2022/06/20 07:56:10;;;;;;;4.70;1.67;;;13.70;99.90;;;;;;6103477;23;20183;-92
2022/06/20 07:58:52;;;;;;;5.43;2.10;;;13.60;99.90;;;;;;6102161;23;20203;-92
2022/06/20 08:01:29;;;;;;;6.07;2.17;;;13.60;99.90;;;;;;6078082;23;20183;-91
2022/06/20 08:04:03;;;;;;;4.23;2.03;;;13.50;99.90;;;;;;6103939;23;20191;-91
2022/06/20 08:06:42;;;;;;;3.20;1.57;;;13.50;99.90;;;;;;6102244;23;20175;-92
2022/06/20 08:09:20;;;;;;;3.17;1.87;;;13.50;99.90;;;;;;6103551;23;20179;-91
2022/06/20 08:11:57;;;;;;;5.90;1.70;;;13.50;99.90;;;;;;6108286;23;20690;-92
2022/06/20 08:14:35;;;;;;;6.03;1.80;;;13.50;99.90;;;;;;6102070;23;20175;-93
2022/06/20 08:17:10;;;;;;;4.33;1.60;;;13.50;99.90;;;;;;6100934;23;20653;-92
2022/06/20 08:19:44;;;;;;;5.50;1.90;;;13.40;99.90;;;;;;6101443;23;20181;-92
2022/06/20 08:22:26;;;;;;;4.50;1.70;;;13.40;99.90;;;;;;6099282;23;20183;-92
2022/06/20 08:25:03;;;;;;;7.73;2.20;;;13.30;99.90;;;;;;6100683;23;20178;-91
2022/06/20 08:27:42;;;;;;;4.40;1.73;;;13.30;99.90;;;;;;6098768;23;20175;-92
2022/06/20 08:30:16;;;;;;;6.37;2.30;;;13.30;99.90;;;;;;6073735;23;20388;-92
2022/06/20 08:32:57;;;;;;;5.10;1.90;;;13.30;99.90;;;;;;6097777;23;20198;-92
2022/06/20 08:35:34;;;;;;;4.00;2.03;;;13.20;99.90;;;;;;6097550;23;20191;-91
2022/06/20 08:38:18;;;;;;;6.60;2.17;;;13.20;99.90;;;;;;6097828;23;20280;-93
2022/06/20 08:41:14;;;;;;;5.67;2.27;;;13.20;99.90;;;;;;6072500;23;20168;-91
2022/06/20 08:44:08;;;;;;;5.03;1.90;;;13.20;99.90;;;;;;6100260;23;20191;-91
2022/06/20 08:47:15;;;;;;;6.50;2.00;;;13.10;99.90;;;;;;6099376;23;20187;-92
2022/06/20 08:50:30;;;;;;;5.27;2.00;;;13.20;99.90;;;;;;6101154;23;20192;-92
2022/06/20 08:56:24;;;;;;;4.60;1.93;;;13.20;99.90;;;;;;5037737;27;2995747;-92
2022/06/20 08:59:05;;;;;;;3.73;2.03;;;13.20;99.90;;;;;;5159683;27;20212;-92
2022/06/20 09:01:48;;;;;;;8.97;2.60;;;13.20;99.90;;;;;;5159526;27;20269;-92
2022/06/20 09:04:57;;;;;;;2.87;2.00;;;13.20;99.90;;;;;;5140670;28;20185;-92
2022/06/20 09:07:54;;;;;;;4.93;1.90;;;13.20;99.90;;;;;;5142741;28;20201;-92
2022/06/20 09:10:40;;;;;;;7.00;1.93;;;13.20;99.90;;;;;;5135868;28;20274;-92
2022/06/20 09:13:41;;;;;;;6.07;2.00;;;13.10;99.90;;;;;;5138959;27;20209;-91
2022/06/20 09:16:24;;;;;;;7.43;2.43;;;13.10;99.90;;;;;;5144583;28;20242;-92
2022/06/20 09:19:10;;;;;;;5.43;1.80;;;13.00;99.90;;;;;;5149613;27;20254;-92
2022/06/20 09:21:56;;;;;;;5.93;2.10;;;13.00;99.90;;;;;;5136623;28;20680;-93
2022/06/20 09:24:37;;;;;;;4.53;1.77;;;13.10;99.90;;;;;;5157656;27;20255;-92
2022/06/20 09:27:12;;;;;;;5.30;1.80;;;13.10;99.90;;;;;;5140302;27;20265;-92
2022/06/20 09:30:00;;;;;;;3.50;1.83;;;13.10;99.90;;;;;;5156851;27;20708;-92
2022/06/20 09:33:10;;;;;;;4.97;2.40;;;13.10;99.90;;;;;;5135182;27;20228;-93
2022/06/20 09:36:10;;;;;;;8.07;1.93;;;13.10;99.90;;;;;;5133990;28;20240;-93
2022/06/20 09:38:56;;;;;;;4.97;2.20;;;13.10;99.90;;;;;;5135038;28;20210;-93
2022/06/20 09:41:36;;;;;;;8.20;2.30;;;13.10;99.90;;;;;;5122276;28;20206;-93
2022/06/20 09:44:20;;;;;;;5.93;1.77;;;13.10;99.90;;;;;;5135300;28;20213;-93
2022/06/20 09:47:07;;;;;;;6.67;2.07;;;13.10;99.90;;;;;;5135058;28;20574;-94
2022/06/20 09:49:50;;;;;;;6.40;2.17;;;13.10;99.90;;;;;;5126603;28;20206;-92
2022/06/20 09:52:39;;;;;;;4.30;1.90;;;13.10;99.90;;;;;;5116278;28;20197;-93
2022/06/20 09:55:21;;;;;;;5.87;2.00;;;13.10;99.90;;;;;;5134937;28;20229;-93
2022/06/20 09:58:00;;;;;;;4.13;1.93;;;13.10;99.90;;;;;;5133775;28;20213;-91
2022/06/20 10:00:39;;;;;;;3.17;1.80;;;13.10;99.90;;;;;;5131378;28;20262;-93
2022/06/20 10:03:23;;;;;;;5.97;1.70;;;13.10;99.90;;;;;;5114362;28;20772;-92
2022/06/20 10:05:59;;;;;;;7.47;1.70;;;13.10;99.90;;;;;;5108664;28;20209;-92
2022/06/20 10:08:40;;;;;;;3.23;1.57;;;13.10;99.90;;;;;;5120772;28;20221;-94
2022/06/20 10:11:18;;;;;;;6.53;2.00;;;12.90;99.90;;;;;;5102568;28;20206;-94
2022/06/20 10:14:00;;;;;;;3.60;1.83;;;12.90;99.90;;;;;;5112493;28;20251;-91
2022/06/20 10:16:40;;;;;;;6.13;1.83;;;13.00;99.90;;;;;;5102601;28;20239;-90
2022/06/20 10:19:20;;;;;;;5.30;1.80;;;13.00;99.90;;;;;;5086000;28;20211;-93
2022/06/20 10:22:02;;;;;;;4.07;1.77;;;13.10;99.90;;;;;;5108083;28;20233;-91
2022/06/20 10:24:55;;;;;;;3.50;1.80;;;13.10;99.90;;;;;;5100678;28;20213;-93
2022/06/20 10:27:57;;;;;;;3.83;1.87;;;13.10;99.90;;;;;;5101577;28;20690;-93
2022/06/20 10:30:39;;;;;;;4.03;2.07;;;13.10;99.90;;;;;;5100005;28;20604;-93
2022/06/20 10:33:31;;;;;;;4.97;2.40;;;13.20;99.90;;;;;;5114131;28;20263;-91
2022/06/20 10:36:26;;;;;;;4.10;2.20;;;13.10;99.90;;;;;;5099489;28;20239;-92
2022/06/20 10:39:11;;;;;;;3.53;1.70;;;13.10;99.90;;;;;;5100021;28;20229;-91
2022/06/20 10:41:56;;;;;;;8.37;2.03;;;13.10;99.90;;;;;;5087308;28;20221;-92
2022/06/20 10:44:41;;;;;;;4.43;2.00;;;13.00;99.90;;;;;;5102019;28;20210;-91
2022/06/20 10:47:22;;;;;;;4.67;1.70;;;13.00;99.90;;;;;;5122344;28;20214;-92
2022/06/20 10:50:22;;;;;;;4.83;1.73;;;13.00;99.90;;;;;;5119637;28;20206;-93
2022/06/20 10:53:16;;;;;;;5.00;1.90;;;13.00;99.90;;;;;;5121478;28;20197;-92
2022/06/20 10:55:51;;;;;;;2.17;1.60;;;13.00;99.90;;;;;;5101592;28;20229;-92
2022/06/20 10:58:42;;;;;;;2.93;1.50;;;13.00;99.90;;;;;;5098991;28;20240;-92
2022/06/20 11:01:20;;;;;;;4.27;1.60;;;13.00;99.90;;;;;;5112703;28;20210;-92
2022/06/20 11:04:17;;;;;;;3.63;1.50;;;13.00;99.90;;;;;;5115960;28;20206;-93
2022/06/20 11:07:02;;;;;;;4.93;1.63;;;13.00;99.90;;;;;;5111313;28;20214;-90
2022/06/20 11:09:47;;;;;;;4.87;1.67;;;13.00;99.90;;;;;;5110984;28;20206;-92
2022/06/20 11:12:29;;;;;;;7.47;1.67;;;13.00;99.90;;;;;;5119630;28;20631;-92
2022/06/20 11:15:09;;;;;;;3.83;1.77;;;12.90;99.90;;;;;;5121149;28;20206;-91
2022/06/20 11:17:46;;;;;;;3.57;1.50;;;12.90;99.90;;;;;;5112730;28;20207;-92
2022/06/20 11:20:23;;;;;;;3.53;1.73;;;12.90;99.90;;;;;;5097447;28;20222;-91
2022/06/20 11:23:01;;;;;;;3.57;1.50;;;12.90;99.90;;;;;;5116894;28;20206;-92
2022/06/20 11:25:48;;;;;;;8.33;1.60;;;13.00;99.90;;;;;;5119050;28;20214;-92
2022/06/20 11:28:42;;;;;;;5.50;1.93;;;13.00;99.90;;;;;;5119019;28;20734;-92
2022/06/20 11:31:22;;;;;;;4.27;1.70;;;13.00;99.90;;;;;;5118019;28;20206;-92
2022/06/20 11:34:13;;;;;;;4.40;1.60;;;12.90;99.90;;;;;;5107029;28;20203;-93
2022/06/20 11:36:56;;;;;;;5.63;1.43;;;12.90;99.90;;;;;;5117304;28;20356;-92
2022/06/20 11:39:43;;;;;;;2.37;1.57;;;12.90;99.90;;;;;;5119100;28;20585;-92
2022/06/20 11:42:37;;;;;;;6.37;2.00;;;12.90;99.90;;;;;;5115432;28;20206;-92
2022/06/20 11:45:31;;;;;;;4.43;1.30;;;12.90;99.90;;;;;;5119010;28;20238;-92
2022/06/20 11:48:19;;;;;;;4.63;1.60;;;12.90;99.90;;;;;;5119196;28;20955;-92
2022/06/20 11:50:53;;;;;;;4.80;2.03;;;12.90;99.90;;;;;;5114500;28;20231;-92
2022/06/20 11:53:41;;;;;;;2.87;1.30;;;12.90;99.90;;;;;;5129652;28;20201;-90
2022/06/20 11:56:22;;;;;;;3.40;1.47;;;12.80;99.90;;;;;;5130384;28;20248;-92
2022/06/20 11:59:37;;;;;;;4.83;1.70;;;12.70;99.90;;;;;;5116045;28;20214;-92
2022/06/20 12:02:24;;;;;;;4.43;1.80;;;12.70;99.90;;;;;;5124410;28;20190;-92
2022/06/20 12:05:00;;;;;;;7.97;1.73;;;12.80;99.90;;;;;;5136672;28;20266;-93
2022/06/20 12:07:54;;;;;;;2.57;1.50;;;12.80;99.90;;;;;;5134849;28;20201;-93
2022/06/20 12:10:34;;;;;;;5.17;1.80;;;12.80;99.90;;;;;;5115622;28;20182;-91
2022/06/20 12:13:17;;;;;;;3.30;1.77;;;12.80;99.90;;;;;;5113468;28;20244;-92
2022/06/20 12:15:59;;;;;;;2.97;2.07;;;12.80;99.90;;;;;;5130769;28;20238;-92
2022/06/20 12:23:18;;;;;;;3.23;1.67;;;12.70;99.90;;;;;;5133191;28;20260;-92
2022/06/20 12:24:25;;;;;;;6.80;1.53;;;12.80;99.90;;;;;;5096551;28;20229;-92
2022/06/20 12:26:56;;;;;;;2.87;1.60;;;12.70;99.90;;;;;;5120727;28;20647;-92
2022/06/20 12:29:31;;;;;;;4.80;1.60;;;12.70;99.90;;;;;;5129314;28;20205;-92
2022/06/20 12:32:14;;;;;;;5.33;2.00;;;12.70;99.90;;;;;;5136360;28;20181;-92
2022/06/20 12:34:54;;;;;;;5.63;1.80;;;12.70;99.90;;;;;;5136197;28;20206;-92
2022/06/20 12:37:31;;;;;;;5.60;1.70;;;12.70;99.90;;;;;;5131038;28;20260;-92
2022/06/20 12:40:08;;;;;;;5.10;1.70;;;12.70;99.90;;;;;;5125424;28;20209;-92
2022/06/20 12:42:49;;;;;;;4.93;1.60;;;12.60;99.90;;;;;;5124559;28;20236;-91
2022/06/20 12:45:54;;;;;;;6.27;1.77;;;12.50;99.90;;;;;;5120786;28;20228;-93
2022/06/20 12:49:10;;;;;;;5.03;1.73;;;12.50;99.90;;;;;;5099644;28;20210;-92
2022/06/20 12:51:51;;;;;;;3.93;1.30;;;12.40;99.90;;;;;;5102630;28;20202;-93
2022/06/20 12:54:45;;;;;;;3.27;1.47;;;12.40;99.90;;;;;;5117300;28;20198;-92
2022/06/20 12:57:33;;;;;;;3.43;1.43;;;12.40;99.90;;;;;;5096823;28;20283;-92
2022/06/20 13:03:08;;;;;;;2.63;1.47;;;12.20;99.90;;;;;;5001166;28;20229;-93
2022/06/20 13:05:56;;;;;;;2.53;1.50;;;12.30;99.90;;;;;;4998572;28;20218;-93
2022/06/20 13:08:53;;;;;;;1.93;1.47;;;12.30;99.90;;;;;;4999718;28;20211;-93
2022/06/20 13:11:36;;;;;;;3.17;1.70;;;12.30;99.90;;;;;;4979395;28;20207;-92
2022/06/20 13:14:36;;;;;;;3.33;1.53;;;12.30;99.90;;;;;;4978418;28;20211;-92
2022/06/20 13:17:26;;;;;;;1.97;1.33;;;12.30;99.90;;;;;;4980216;28;20277;-93
2022/06/20 13:20:25;;;;;;;1.60;1.30;;;12.30;99.90;;;;;;4989193;28;20269;-93
2022/06/20 13:23:09;;;;;;;3.07;1.40;;;12.30;99.90;;;;;;4999610;28;20214;-94
2022/06/20 13:25:49;;;;;;;2.60;1.40;;;12.30;99.90;;;;;;4997547;28;20210;-93
2022/06/20 13:28:26;;;;;;;3.73;1.60;;;12.20;99.90;;;;;;4997982;28;20218;-93
2022/06/20 13:31:08;;;;;;;3.77;1.57;;;12.20;99.90;;;;;;5002789;28;20226;-93
2022/06/20 13:33:47;;;;;;;2.13;1.30;;;12.20;99.90;;;;;;4996883;28;20726;-93
2022/06/20 13:36:42;;;;;;;2.60;1.80;;;12.20;99.90;;;;;;4997108;28;20264;-93
2022/06/20 13:39:25;;;;;;;2.87;1.70;;;12.20;99.90;;;;;;4981991;28;20253;-93
2022/06/20 13:42:03;;;;;;;4.87;1.70;;;12.30;99.90;;;;;;4998307;28;20268;-92
2022/06/20 13:44:46;;;;;;;5.87;2.03;;;12.30;99.90;;;;;;5000755;28;20241;-92
2022/06/20 13:47:24;;;;;;;7.43;2.40;;;12.30;99.90;;;;;;4999895;28;20203;-93
2022/06/20 13:50:16;;;;;;;7.63;2.20;;;12.30;99.90;;;;;;4999303;28;20206;-92
2022/06/20 13:52:56;;;;;;;4.43;2.20;;;12.30;99.90;;;;;;5003098;28;20282;-94
2022/06/20 13:55:35;;;;;;;11.07;2.73;;;12.30;99.90;;;;;;4999957;28;20296;-93
2022/06/20 13:58:14;;;;;;;8.67;3.27;;;12.30;99.90;;;;;;5002979;28;20238;-92
2022/06/20 14:00:54;;;;;;;8.17;2.50;;;12.10;99.90;;;;;;5004210;28;20224;-92
2022/06/20 14:03:37;;;;;;;3.80;2.10;;;12.10;99.90;;;;;;5003715;28;20222;-93
2022/06/20 14:06:14;;;;;;;7.20;2.37;;;12.10;99.90;;;;;;5002860;28;20210;-92
2022/06/20 14:08:48;;;;;;;5.07;2.60;;;12.20;99.90;;;;;;4998314;28;20198;-92
2022/06/20 14:11:43;;;;;;;6.70;2.80;;;12.30;99.90;;;;;;4999935;28;20234;-93
2022/06/20 14:14:22;;;;;;;7.87;2.23;;;12.30;99.90;;;;;;4997896;28;20242;-92
2022/06/20 14:16:56;;;;;;;3.87;2.87;;;12.20;99.90;;;;;;4988559;28;20902;-93
2022/06/20 14:19:32;;;;;;;8.23;2.53;;;12.30;99.90;;;;;;4999275;28;20220;-92
2022/06/20 14:22:04;;;;;;;5.63;2.53;;;12.30;99.90;;;;;;5000936;28;20222;-93
2022/06/20 14:24:40;;;;;;;7.73;2.57;;;12.30;99.90;;;;;;5001707;28;20738;-93
2022/06/20 14:27:21;;;;;;;5.67;2.07;;;12.30;99.90;;;;;;5014974;28;20221;-93
2022/06/20 14:30:07;;;;;;;6.63;2.60;;;12.30;99.90;;;;;;4980410;28;20230;-94
2022/06/20 14:32:45;;;;;;;6.37;2.60;;;12.30;99.90;;;;;;5005668;28;20211;-93
2022/06/20 14:35:28;;;;;;;4.67;2.60;;;12.40;99.90;;;;;;4999346;28;20244;-93
2022/06/20 14:38:07;;;;;;;5.97;2.50;;;12.30;99.90;;;;;;4999574;28;20292;-92
2022/06/20 14:40:40;;;;;;;5.93;2.40;;;12.30;99.90;;;;;;5000497;28;20667;-93
2022/06/20 14:43:19;;;;;;;6.77;2.20;;;12.30;99.90;;;;;;5009189;28;20217;-90
2022/06/20 14:46:01;;;;;;;9.00;2.93;;;12.30;99.90;;;;;;5014840;28;20226;-93
2022/06/20 14:48:36;;;;;;;5.50;2.80;;;12.30;99.90;;;;;;5006310;28;20218;-93
2022/06/20 14:51:13;;;;;;;4.67;2.43;;;12.40;99.90;;;;;;5002676;28;20221;-94
2022/06/20 14:53:56;;;;;;;4.57;2.50;;;12.40;99.90;;;;;;5001694;28;20241;-93
2022/06/20 14:56:32;;;;;;;3.97;2.10;;;12.30;99.90;;;;;;4998896;28;20217;-93
2022/06/20 14:59:14;;;;;;;4.10;2.00;;;12.40;99.90;;;;;;4982616;28;20211;-93
2022/06/20 15:01:48;;;;;;;5.53;2.00;;;12.50;99.90;;;;;;4989100;28;20258;-93
2022/06/20 15:04:25;;;;;;;7.70;2.27;;;12.50;99.90;;;;;;5000086;28;20221;-93
2022/06/20 15:07:12;;;;;;;6.83;3.00;;;12.60;99.90;;;;;;5002988;28;20214;-93
2022/06/20 15:09:48;;;;;;;2.87;1.90;;;12.50;99.90;;;;;;4993760;28;20265;-93
2022/06/20 15:12:29;;;;;;;4.03;1.97;;;12.40;99.90;;;;;;5000291;28;20217;-93
2022/06/20 15:15:06;;;;;;;6.57;1.80;;;12.30;99.90;;;;;;4997861;28;20218;-92
2022/06/20 15:17:47;;;;;;;4.20;2.00;;;12.20;99.90;;;;;;4998315;28;20273;-94
2022/06/20 15:20:25;;;;;;;3.60;2.00;;;12.20;99.90;;;;;;4995408;28;20616;-93
2022/06/20 15:23:01;;;;;;;5.47;2.10;;;12.30;99.90;;;;;;4997056;28;20230;-93
2022/06/20 15:25:38;;;;;;;4.57;2.10;;;12.30;99.90;;;;;;4993847;28;20256;-93
2022/06/20 15:28:15;;;;;;;5.10;2.03;;;12.30;99.90;;;;;;4998420;28;20210;-93
2022/06/20 15:30:58;;;;;;;5.43;2.27;;;12.50;99.90;;;;;;4997665;28;20578;-93
2022/06/20 15:33:38;;;;;;;3.77;1.90;;;12.50;99.90;;;;;;4997662;28;20628;-92
2022/06/20 15:36:21;;;;;;;4.90;2.13;;;12.60;99.90;;;;;;4995880;28;20233;-92
2022/06/20 15:39:16;;;;;;;3.63;1.83;;;12.70;99.90;;;;;;4981427;28;20234;-93
2022/06/20 15:42:07;;;;;;;5.27;2.10;;;12.80;99.90;;;;;;4975337;28;20550;-93
2022/06/20 15:44:51;;;;;;;3.23;2.10;;;12.80;99.90;;;;;;4995972;28;20226;-93
2022/06/20 15:47:44;;;;;;;3.57;2.30;;;12.90;99.90;;;;;;5001228;28;20218;-93
2022/06/20 15:50:25;;;;;;;4.77;2.23;;;12.80;99.90;;;;;;5004633;28;20214;-93
2022/06/20 15:53:09;;;;;;;4.00;2.17;;;12.80;99.90;;;;;;4991124;28;20277;-93
2022/06/20 15:59:09;;;;;;;3.97;2.73;;;12.80;99.90;;;;;;5010832;28;20234;-93
2022/06/20 16:01:59;;;;;;;5.23;2.37;;;12.90;99.90;;;;;;5008337;28;20202;-93
2022/06/20 16:04:39;;;;;;;2.37;1.90;;;13.00;99.90;;;;;;4992851;28;20219;-92
2022/06/20 16:07:30;;;;;;;3.40;2.13;;;13.10;99.90;;;;;;5011516;28;20210;-95
2022/06/20 16:10:26;;;;;;;5.30;2.17;;;13.20;99.90;;;;;;4972159;28;20612;-92
2022/06/20 16:13:13;;;;;;;6.13;2.10;;;13.20;99.90;;;;;;4989396;28;20206;-94
2022/06/20 16:15:46;;;;;;;3.83;1.80;;;13.20;99.90;;;;;;4999182;28;20237;-94
2022/06/20 16:18:21;;;;;;;5.67;2.20;;;13.20;99.90;;;;;;5011314;28;20230;-94
2022/06/20 16:21:02;;;;;;;5.27;2.13;;;13.30;99.90;;;;;;5013226;28;20210;-94
2022/06/20 16:23:45;;;;;;;4.20;2.10;;;13.30;99.90;;;;;;5004448;28;20211;-94
2022/06/20 16:26:28;;;;;;;3.60;2.00;;;13.30;99.90;;;;;;4990023;28;20230;-94
2022/06/20 16:29:10;;;;;;;6.27;2.47;;;13.20;99.90;;;;;;5008330;28;20219;-94
2022/06/20 16:31:54;;;;;;;3.83;2.37;;;13.30;99.90;;;;;;5470098;23;20305;-93
2022/06/20 16:37:13;;;;;;;4.70;1.97;;;13.40;99.90;;;;;;5057236;28;20250;-92
2022/06/20 16:39:47;;;;;;;4.80;2.70;;;13.40;99.90;;;;;;5052489;28;20251;-94
2022/06/20 16:42:38;;;;;;;4.13;2.40;;;13.40;99.90;;;;;;5053532;28;20208;-94
2022/06/20 16:45:39;;;;;;;3.20;1.60;;;13.40;99.90;;;;;;5053261;28;20275;-94
2022/06/20 16:48:25;;;;;;;3.57;1.70;;;13.20;99.90;;;;;;5051186;28;20675;-94
2022/06/20 16:51:06;;;;;;;4.13;2.00;;;13.30;99.90;;;;;;5040321;28;20681;-95
2022/06/20 16:53:46;;;;;;;3.70;1.80;;;13.30;99.90;;;;;;5045299;28;20212;-95
2022/06/20 16:56:20;;;;;;;4.93;2.60;;;13.40;99.90;;;;;;5053493;28;20231;-95
2022/06/20 16:58:58;;;;;;;4.50;1.90;;;13.40;99.90;;;;;;5051071;28;20263;-94
2022/06/20 17:01:40;;;;;;;3.57;1.63;;;13.50;99.90;;;;;;5052885;28;20216;-94
2022/06/20 17:04:25;;;;;;;4.90;1.90;;;13.50;99.90;;;;;;5034382;28;20232;-95
2022/06/20 17:07:00;;;;;;;2.87;1.90;;;13.50;99.90;;;;;;5036087;28;20205;-95
2022/06/20 17:09:40;;;;;;;4.63;1.87;;;13.60;99.90;;;;;;5045734;28;20212;-94
2022/06/20 17:12:35;;;;;;;3.50;1.60;;;13.70;99.90;;;;;;5057095;28;20212;-95
2022/06/20 17:15:20;;;;;;;4.50;1.73;;;13.50;99.90;;;;;;5068423;28;20204;-93
2022/06/20 17:20:36;;;;;;;6.83;2.07;;;13.70;99.90;;;;;;4995067;28;20229;-96
2022/06/20 17:23:16;;;;;;;2.60;1.70;;;13.80;99.90;;;;;;4994881;28;20232;-94
2022/06/20 17:26:11;;;;;;;2.63;1.67;;;14.00;99.90;;;;;;4995870;28;20234;-92